Terminal Aerodrome Forecast
Issued by NWS

Home | Current Version | Previous Version | Text Only | Print | Product List | Glossary On
Versions: 1 2 3 4 5 6 7 8 9 10 11 12 13 14 15 16 17 18 19 20 21 22 23 24 25 26 27 28 29 30 31 32 33 34 35 36 37 38 39 40 41
000
FTAK31 PAFA 272323
TAFASC
TAF
PASC 272323Z 2800/2824 26017KT 5SM -SN BLSN SCT025 BKN040 OVC060
     FM280300 23015KT 3SM -SHSN BR OVC020
     FM280600 15012KT 4SM BR SCT025 BKN050
     FM281500 21015G25KT 2SM -SN BR BKN020=

USA.gov is the U.S. government's official web portal to all federal, state and local government web resources and services.